createdAt,value
2018-11-02T00:08:08.883Z,13.30
2018-11-02T00:09:00.882Z,10.80
2018-11-02T00:10:02.009Z,10.30
2018-11-02T00:11:00.814Z,9.00
2018-11-02T00:12:06.384Z,9.50
2018-11-02T00:13:00.764Z,11.00
2018-11-02T00:14:11.352Z,10.20
2018-11-02T00:15:00.708Z,8.80
2018-11-02T00:16:11.365Z,8.90
2018-11-02T00:17:00.663Z,8.70
2018-11-02T00:18:07.389Z,9.10
2018-11-02T00:19:00.593Z,9.30
2018-11-02T00:20:21.632Z,10.50
2018-11-02T00:21:00.542Z,8.40
2018-11-02T00:22:00.500Z,8.40
2018-11-02T00:23:29.436Z,10.70
2018-11-02T00:24:00.477Z,9.60
2018-11-02T00:25:02.523Z,10.30
2018-11-02T00:26:00.388Z,8.60
2018-11-02T00:27:01.414Z,8.00
2018-11-02T00:28:00.322Z,8.70
2018-11-02T00:29:04.900Z,9.80
2018-11-02T00:30:00.266Z,9.10
2018-11-02T00:31:00.301Z,8.60
2018-11-02T00:32:00.318Z,9.60
2018-11-02T00:33:02.267Z,10.00
2018-11-02T00:34:00.155Z,11.60
2018-11-02T00:35:02.179Z,8.50
2018-11-02T00:36:00.084Z,8.00
2018-11-02T00:37:23.900Z,9.30
2018-11-02T00:38:00.036Z,10.40
2018-11-02T00:38:59.996Z,9.20
2018-11-02T00:40:11.941Z,8.60
2018-11-02T00:41:00.009Z,7.20
2018-11-02T00:42:04.888Z,8.00
2018-11-02T00:42:59.887Z,8.70
2018-11-02T00:44:01.961Z,8.10
2018-11-02T00:44:59.827Z,10.50
2018-11-02T00:45:59.799Z,9.10
2018-11-02T00:47:01.850Z,7.80
2018-11-02T00:47:59.733Z,8.00
2018-11-02T00:48:59.825Z,7.90
2018-11-02T00:49:59.694Z,8.40
2018-11-02T00:51:01.774Z,8.90
2018-11-02T00:51:59.653Z,9.30
2018-11-02T00:52:59.620Z,7.60
2018-11-02T00:53:59.565Z,7.70
2018-11-02T00:54:59.575Z,7.50
2018-11-02T00:55:59.641Z,8.60
2018-11-02T00:56:59.484Z,7.00
2018-11-02T00:58:00.565Z,7.70
2018-11-02T00:58:59.424Z,7.70
2018-11-02T01:00:01.499Z,7.10
2018-11-02T01:00:59.409Z,7.10
2018-11-02T01:01:59.426Z,7.70
2018-11-02T01:02:59.296Z,8.90
2018-11-02T01:04:00.300Z,9.20
2018-11-02T01:04:59.242Z,6.90
2018-11-02T01:05:59.210Z,6.60
2018-11-02T01:06:59.191Z,7.30
2018-11-02T01:07:59.193Z,6.30
2018-11-02T01:08:59.156Z,6.90
2018-11-02T01:09:59.100Z,6.30
2018-11-02T01:10:59.083Z,6.50
2018-11-02T01:11:59.065Z,7.80
2018-11-02T01:12:59.008Z,8.70
2018-11-02T01:13:58.979Z,7.60
2018-11-02T01:14:58.956Z,6.60
2018-11-02T01:15:58.930Z,6.10
2018-11-02T01:16:59.005Z,7.80
2018-11-02T01:17:58.878Z,6.70
2018-11-02T01:18:59.935Z,7.30
2018-11-02T01:19:58.814Z,6.00
2018-11-02T01:20:59.947Z,6.90
2018-11-02T01:21:58.801Z,5.80
2018-11-02T01:22:58.857Z,5.50
2018-11-02T01:23:58.707Z,5.80
2018-11-02T01:24:58.801Z,5.50
2018-11-02T01:25:58.637Z,5.60
2018-11-02T01:26:58.702Z,6.50
2018-11-02T01:27:58.666Z,5.10
2018-11-02T01:28:58.694Z,6.30
2018-11-02T01:29:58.523Z,5.80
2018-11-02T01:30:58.584Z,6.20
2018-11-02T01:31:58.469Z,5.90
2018-11-02T01:32:58.493Z,6.80
2018-11-02T01:33:58.407Z,7.30
2018-11-02T01:34:58.404Z,5.50
2018-11-02T01:35:58.361Z,5.30
2018-11-02T01:36:58.418Z,7.30
2018-11-02T01:37:58.298Z,7.00
2018-11-02T01:38:58.331Z,5.40
2018-11-02T01:39:58.239Z,5.50
2018-11-02T01:40:58.257Z,5.80
2018-11-02T01:41:58.239Z,5.20
2018-11-02T01:42:58.294Z,7.50
2018-11-02T01:43:58.121Z,6.10
2018-11-02T01:45:00.207Z,7.70
2018-11-02T01:45:58.077Z,7.30
2018-11-02T01:46:58.069Z,6.50
2018-11-02T01:47:58.017Z,8.60
2018-11-02T01:49:48.656Z,24.10
2018-11-02T01:50:48.588Z,8.50
2018-11-02T01:51:48.556Z,5.20
2018-11-02T01:52:48.533Z,5.40
2018-11-02T01:53:48.507Z,5.20
2018-11-02T01:54:48.473Z,5.10
2018-11-02T01:55:48.443Z,7.20
2018-11-02T01:56:48.445Z,5.30
2018-11-02T01:57:48.384Z,5.50
2018-11-02T01:58:48.361Z,5.00
2018-11-02T01:59:48.329Z,6.60
2018-11-02T02:00:48.300Z,4.10
2018-11-02T02:01:48.275Z,5.90
2018-11-02T02:02:48.252Z,6.20
2018-11-02T02:03:48.218Z,4.60
2018-11-02T02:04:48.257Z,5.00
2018-11-02T02:05:48.164Z,4.90
2018-11-02T02:06:48.164Z,5.60
2018-11-02T02:07:48.097Z,4.90
2018-11-02T02:08:48.212Z,4.30
2018-11-02T02:09:48.046Z,5.90
2018-11-02T02:10:49.129Z,4.90
2018-11-02T02:11:47.992Z,5.60
2018-11-02T02:12:48.035Z,6.50
2018-11-02T02:13:47.938Z,9.10
2018-11-02T02:16:34.184Z,15.00
2018-11-02T02:17:34.229Z,4.20
2018-11-02T02:18:34.108Z,6.10
2018-11-02T02:19:34.155Z,6.40
2018-11-02T02:20:34.064Z,4.60
2018-11-02T02:21:34.138Z,5.80
2018-11-02T02:22:33.983Z,3.90
2018-11-02T02:23:55.011Z,4.30
2018-11-02T02:24:33.929Z,6.40
2018-11-02T02:25:33.899Z,3.90
2018-11-02T02:26:50.453Z,4.30
2018-11-02T02:27:33.840Z,5.10
2018-11-02T02:28:33.886Z,3.70
2018-11-02T02:29:33.781Z,3.80
2018-11-02T02:30:33.868Z,3.60
2018-11-02T02:31:33.722Z,5.30
2018-11-02T02:33:19.721Z,8.20
2018-11-02T02:34:19.765Z,3.90
2018-11-02T02:35:19.653Z,4.50
2018-11-02T02:36:19.679Z,4.80
2018-11-02T02:37:19.596Z,4.10
2018-11-02T02:38:24.511Z,3.90
2018-11-02T02:39:19.547Z,4.30
2018-11-02T02:40:19.548Z,5.00
2018-11-02T02:41:19.494Z,4.60
2018-11-02T02:42:19.460Z,5.40
2018-11-02T02:43:19.511Z,4.20
2018-11-02T02:44:19.385Z,4.20
2018-11-02T02:45:19.442Z,4.70
2018-11-02T02:46:19.336Z,3.70
2018-11-02T02:47:19.303Z,3.80
2018-11-02T02:48:23.958Z,4.40
2018-11-02T02:49:19.242Z,6.50
2018-11-02T02:50:21.304Z,6.50
2018-11-02T02:51:19.178Z,5.10
2018-11-02T02:52:19.178Z,3.70
2018-11-02T02:53:19.143Z,5.00
2018-11-02T02:54:26.066Z,5.60
2018-11-02T02:55:19.066Z,3.70
2018-11-02T02:56:19.104Z,4.20
2018-11-02T02:57:19.008Z,4.30
2018-11-02T03:04:40.539Z,26.70
2018-11-02T03:05:42.536Z,7.10
2018-11-02T03:06:40.498Z,5.00
2018-11-02T03:07:47.240Z,3.80
2018-11-02T03:08:40.404Z,3.90
2018-11-02T03:09:40.384Z,4.90
2018-11-02T03:10:40.382Z,4.30
2018-11-02T03:11:41.321Z,4.40
2018-11-02T03:12:40.278Z,5.90
2018-11-02T03:13:40.309Z,4.30
2018-11-02T03:14:40.228Z,5.50
2018-11-02T03:15:46.261Z,5.00
2018-11-02T03:16:40.174Z,4.70
2018-11-02T03:17:41.153Z,5.80
2018-11-02T03:18:40.143Z,4.80
2018-11-02T03:19:42.097Z,5.20
2018-11-02T03:20:40.034Z,5.10
2018-11-02T03:21:40.052Z,5.90
2018-11-02T03:22:40.054Z,7.20
2018-11-02T03:23:40.994Z,5.20
2018-11-02T03:24:39.918Z,5.30
2018-11-02T03:25:50.740Z,5.60
2018-11-02T03:26:39.863Z,6.00
2018-11-02T03:27:51.769Z,5.30
2018-11-02T03:28:39.806Z,5.60
2018-11-02T03:51:40.369Z,19.60
2018-11-02T03:52:30.525Z,6.00
2018-11-02T04:24:34.499Z,16.30
2018-11-02T04:25:45.285Z,6.90
2018-11-02T04:26:34.415Z,6.10
2018-11-02T04:27:34.451Z,9.30
2018-11-02T04:28:34.358Z,8.00
2018-11-02T04:29:41.292Z,6.80
2018-11-02T04:30:34.310Z,7.60
2018-11-02T04:31:35.371Z,7.40
2018-11-02T04:32:34.242Z,8.80
2018-11-02T04:33:34.256Z,8.00
2018-11-02T04:34:34.193Z,8.50
2018-11-02T04:35:34.269Z,6.80
2018-11-02T04:36:34.118Z,7.20
2018-11-02T04:37:35.199Z,8.00
2018-11-02T04:38:34.063Z,8.90
2018-11-02T04:39:34.034Z,8.60
2018-11-02T04:40:34.010Z,8.20
2018-11-02T04:41:33.980Z,9.00
2018-11-02T04:42:33.954Z,11.50
2018-11-02T04:43:33.920Z,8.70
2018-11-02T04:45:20.210Z,11.50
2018-11-02T04:46:20.155Z,7.70
2018-11-02T04:47:20.119Z,8.50
2018-11-02T04:48:20.155Z,8.60
2018-11-02T04:49:20.059Z,8.80
2018-11-02T04:50:21.149Z,12.90
2018-11-02T04:51:20.033Z,9.90
2018-11-02T04:52:20.088Z,8.10
2018-11-02T04:53:19.953Z,10.50
2018-11-02T04:54:20.030Z,9.00
2018-11-02T04:55:19.890Z,8.80
2018-11-02T04:56:19.913Z,10.90
2018-11-02T04:57:19.858Z,10.60
2018-11-02T04:58:19.918Z,10.80
2018-11-02T04:59:19.777Z,11.30
2018-11-02T05:00:19.783Z,9.80
2018-11-02T05:01:19.726Z,10.20
2018-11-02T05:03:07.491Z,14.70
2018-11-02T05:04:07.432Z,9.90
2018-11-02T05:05:19.198Z,9.90
2018-11-02T05:06:07.373Z,11.60
2018-11-02T05:22:37.604Z,19.00
2018-11-02T05:23:34.953Z,12.10
2018-11-02T05:24:34.935Z,13.10
2018-11-02T05:25:34.907Z,12.30
2018-11-02T05:26:34.867Z,13.60
2018-11-02T05:27:34.842Z,13.30
2018-11-02T05:28:34.879Z,13.10
2018-11-02T05:29:34.790Z,14.70
2018-11-02T05:30:41.633Z,13.60
2018-11-02T05:31:34.724Z,13.80
2018-11-02T05:32:55.787Z,14.60
2018-11-02T05:33:34.674Z,14.20
2018-11-02T05:34:56.729Z,14.60
2018-11-02T05:35:34.612Z,13.40
2018-11-02T05:36:45.162Z,14.00
2018-11-02T05:37:34.548Z,14.10
2018-11-02T05:38:36.572Z,14.90
2018-11-02T05:39:34.577Z,14.10
2018-11-02T05:40:36.591Z,17.70
2018-11-02T05:41:34.432Z,18.10
2018-11-02T05:42:39.159Z,16.20
2018-11-02T05:43:34.394Z,17.10
2018-11-02T05:44:36.407Z,16.70
2018-11-02T05:45:34.322Z,19.10
2018-11-02T05:46:35.391Z,16.80
2018-11-02T05:47:34.265Z,18.60
2018-11-02T05:48:36.277Z,18.70
2018-11-02T05:49:34.228Z,16.60
2018-11-02T05:50:34.179Z,16.00
2018-11-02T05:51:36.266Z,16.60
2018-11-02T05:52:34.149Z,15.60
2018-11-02T05:53:38.624Z,17.90
2018-11-02T05:54:34.072Z,16.40
2018-11-02T05:55:55.125Z,19.60
2018-11-02T05:56:34.009Z,18.50
2018-11-02T05:57:33.970Z,18.30
2018-11-02T06:01:25.611Z,20.80
2018-11-02T06:02:24.503Z,19.80
2018-11-02T06:03:24.472Z,18.10
2018-11-02T06:04:24.546Z,17.10
2018-11-02T06:05:24.415Z,20.20
2018-11-02T06:06:25.480Z,18.80
2018-11-02T06:07:24.354Z,19.40
2018-11-02T06:08:24.330Z,19.50
2018-11-02T06:09:24.391Z,18.40
2018-11-02T06:10:24.273Z,19.10
2018-11-02T06:11:26.347Z,20.60
2018-11-02T06:12:24.256Z,17.40
2018-11-02T06:13:29.161Z,19.90
2018-11-02T06:14:24.203Z,19.90
2018-11-02T06:15:24.133Z,22.10
2018-11-02T06:16:25.182Z,20.80
2018-11-02T06:17:24.065Z,22.60
2018-11-02T06:18:24.139Z,19.50
2018-11-02T06:19:24.044Z,26.90
2018-11-02T06:20:24.054Z,23.50
2018-11-02T06:21:23.965Z,23.60
2018-11-02T06:22:23.969Z,21.70
2018-11-02T06:23:23.904Z,22.40
2018-11-02T06:24:24.073Z,22.40
2018-11-02T06:25:23.832Z,21.80
2018-11-02T06:26:23.894Z,22.70
2018-11-02T06:28:10.161Z,25.20
2018-11-02T06:29:10.106Z,20.90
2018-11-02T06:30:10.082Z,22.70
2018-11-02T06:31:10.097Z,23.80
2018-11-02T06:32:10.018Z,23.40
2018-11-02T06:33:10.019Z,21.00
2018-11-02T06:34:09.956Z,20.00
2018-11-02T06:35:10.035Z,25.50
2018-11-02T06:36:09.904Z,21.60
2018-11-02T06:37:09.907Z,22.60
2018-11-02T06:38:09.849Z,25.10
2018-11-02T06:39:09.930Z,23.20
2018-11-02T06:40:09.789Z,26.20
2018-11-02T06:41:09.874Z,24.50
2018-11-02T06:42:09.726Z,22.00
2018-11-02T06:43:09.751Z,23.80
2018-11-02T06:44:56.133Z,26.40
2018-11-02T06:45:56.044Z,25.50
2018-11-02T06:46:55.924Z,23.70
2018-11-02T06:48:11.827Z,25.90
2018-11-02T06:48:55.865Z,23.30
2018-11-02T06:50:00.887Z,22.70
2018-11-02T06:50:56.065Z,26.80
2018-11-02T06:52:02.843Z,24.60
2018-11-02T06:52:55.750Z,25.70
2018-11-02T06:54:00.290Z,28.40
2018-11-02T06:54:55.719Z,24.90
2018-11-02T06:55:55.775Z,26.30
2018-11-02T06:56:55.642Z,26.30
2018-11-02T06:57:55.678Z,25.30
2018-11-02T06:58:55.623Z,26.70
2018-11-02T06:59:55.874Z,27.30
2018-11-02T07:00:55.522Z,26.30
2018-11-02T07:01:55.565Z,26.30
2018-11-02T07:02:55.460Z,25.40
2018-11-02T07:03:55.477Z,29.60
2018-11-02T07:04:55.411Z,24.00
2018-11-02T07:05:55.472Z,26.70
2018-11-02T07:06:55.353Z,26.30
2018-11-02T07:07:55.450Z,27.80
2018-11-02T07:08:55.291Z,29.40
2018-11-02T07:09:55.287Z,24.40
2018-11-02T07:10:57.333Z,23.70
2018-11-02T07:11:55.215Z,27.10
2018-11-02T07:12:57.238Z,27.50
2018-11-02T07:13:55.160Z,28.60
2018-11-02T07:14:57.146Z,27.90
2018-11-02T07:15:55.091Z,26.40
2018-11-02T07:16:55.121Z,27.80
2018-11-02T07:17:55.059Z,24.30
2018-11-02T07:18:57.081Z,29.10
2018-11-02T07:19:54.978Z,25.70
2018-11-02T07:20:55.040Z,28.40
2018-11-02T07:22:40.784Z,31.00
2018-11-02T07:23:40.736Z,24.40
2018-11-02T07:24:41.760Z,24.40
2018-11-02T07:25:40.674Z,25.40
2018-11-02T07:26:51.620Z,25.40
2018-11-02T07:27:40.622Z,27.70
2018-11-02T07:28:47.556Z,25.20
2018-11-02T07:29:40.557Z,25.80
2018-11-02T07:30:42.553Z,26.00
2018-11-02T07:31:40.497Z,25.00
2018-11-02T07:33:14.124Z,26.40
2018-11-02T07:33:40.444Z,26.00
2018-11-02T07:34:40.419Z,25.20
2018-11-02T07:35:45.208Z,22.10
2018-11-02T07:36:40.360Z,20.80
2018-11-02T07:37:40.353Z,23.40
2018-11-02T07:38:40.310Z,23.20
2018-11-02T07:39:40.364Z,18.70
2018-11-02T07:40:40.252Z,23.70
2018-11-02T07:41:45.088Z,23.20
2018-11-02T07:42:40.199Z,24.80
2018-11-02T07:43:42.240Z,21.90
2018-11-02T07:44:40.145Z,19.90
2018-11-02T07:45:41.124Z,21.50
2018-11-02T07:46:40.084Z,20.70
2018-11-02T07:47:40.179Z,18.50
2018-11-02T07:48:40.256Z,23.80
2018-11-02T07:49:45.663Z,22.80
2018-11-02T07:50:39.952Z,17.70
2018-11-02T07:51:44.551Z,21.90
2018-11-02T07:52:39.897Z,17.00
2018-11-02T07:53:39.951Z,17.90
2018-11-02T07:54:39.838Z,18.00
2018-11-02T07:55:39.860Z,21.30
2018-11-02T07:56:39.783Z,19.40
2018-11-02T07:57:40.795Z,21.70
2018-11-02T07:58:39.731Z,19.70
2018-11-02T07:59:39.786Z,21.80
2018-11-02T08:00:39.659Z,23.20
2018-11-02T08:01:45.691Z,21.90
2018-11-02T08:02:39.614Z,18.30
2018-11-02T08:03:40.617Z,21.80
2018-11-02T08:04:39.567Z,16.60
2018-11-02T08:06:00.522Z,18.40
2018-11-02T08:06:39.496Z,20.60
2018-11-02T08:07:40.544Z,21.60
2018-11-02T08:08:39.448Z,19.20
2018-11-02T08:09:40.457Z,19.90
2018-11-02T08:10:39.386Z,20.30
2018-11-02T08:11:44.190Z,18.50
2018-11-02T08:12:39.340Z,21.70
2018-11-02T08:13:51.104Z,21.50
2018-11-02T08:14:39.279Z,18.00
2018-11-02T08:15:40.372Z,17.80
2018-11-02T08:16:39.215Z,19.50
2018-11-02T08:17:39.277Z,17.90
2018-11-02T08:18:39.157Z,18.80
2018-11-02T08:19:41.222Z,19.00
2018-11-02T08:20:39.098Z,17.60
2018-11-02T08:21:40.099Z,15.70
2018-11-02T08:22:39.030Z,17.70
2018-11-02T08:23:39.089Z,16.30
2018-11-02T08:24:39.026Z,16.40
2018-11-02T08:25:38.987Z,16.00
2018-11-02T08:26:38.916Z,18.10
2018-11-02T08:27:39.923Z,13.50
2018-11-02T08:28:38.901Z,15.00
2018-11-02T08:29:38.913Z,15.10
2018-11-02T08:30:38.806Z,21.60
2018-11-02T08:31:40.871Z,15.10
2018-11-02T08:32:38.746Z,13.10
2018-11-02T08:33:38.735Z,15.00
2018-11-02T08:34:38.686Z,14.30
2018-11-02T08:35:38.750Z,16.70
2018-11-02T08:36:38.629Z,13.30
2018-11-02T08:37:39.705Z,16.40
2018-11-02T08:38:38.586Z,18.20
2018-11-02T08:39:38.570Z,14.50
2018-11-02T08:40:38.571Z,10.90
2018-11-02T08:41:38.484Z,11.50
2018-11-02T08:42:38.461Z,19.70
2018-11-02T08:43:38.498Z,10.70
2018-11-02T08:44:38.396Z,13.50
2018-11-02T08:45:39.424Z,11.50
2018-11-02T08:46:38.495Z,13.60
2018-11-02T08:47:39.346Z,11.30
2018-11-02T08:48:38.280Z,12.60
2018-11-02T08:49:59.331Z,10.20
2018-11-02T08:50:38.234Z,11.00
2018-11-02T08:51:38.239Z,10.00
2018-11-02T08:52:38.198Z,13.10
2018-11-02T08:53:38.162Z,15.00
2018-11-02T08:54:38.110Z,12.80
2018-11-02T08:55:38.082Z,10.60
2018-11-02T08:56:38.044Z,12.70
2018-11-02T08:57:38.118Z,12.30
2018-11-02T08:58:39.315Z,12.20
2018-11-02T08:59:38.111Z,11.20
2018-11-02T09:00:43.623Z,10.60
2018-11-02T09:01:37.897Z,10.50
2018-11-02T09:02:50.676Z,13.30
2018-11-02T09:03:37.838Z,10.20
2018-11-02T09:04:37.859Z,10.40
2018-11-02T09:05:37.821Z,12.10
2018-11-02T09:06:37.754Z,13.70
2018-11-02T09:07:39.841Z,13.30
2018-11-02T09:08:37.700Z,11.40
2018-11-02T09:09:37.672Z,10.50
2018-11-02T09:10:37.697Z,10.00
2018-11-02T09:11:37.657Z,13.40
2018-11-02T09:12:37.576Z,14.60
2018-11-02T09:13:37.642Z,13.00
2018-11-02T09:14:37.521Z,13.00
2018-11-02T09:15:37.536Z,13.50
2018-11-02T09:16:37.459Z,13.50
2018-11-02T09:18:36.782Z,33.20
2018-11-02T09:19:36.655Z,11.10
2018-11-02T09:51:49.295Z,19.10
2018-11-02T09:52:49.089Z,10.20
2018-11-02T09:53:49.089Z,10.80
2018-11-02T09:54:49.052Z,12.00
2018-11-02T09:55:49.105Z,9.20
2018-11-02T09:56:48.982Z,9.20
2018-11-02T09:57:49.093Z,7.70
2018-11-02T09:58:48.932Z,8.20
2018-11-02T09:59:48.893Z,7.20
2018-11-02T10:00:48.866Z,7.30
2018-11-02T10:01:49.016Z,6.60
2018-11-02T10:02:48.811Z,9.10
2018-11-02T10:03:48.824Z,12.60
2018-11-02T10:04:48.753Z,8.10
2018-11-02T10:05:48.731Z,10.10
2018-11-02T10:06:48.721Z,8.30
2018-11-02T10:07:48.670Z,8.10
2018-11-02T10:08:48.643Z,6.80
2018-11-02T10:09:48.677Z,7.40
2018-11-02T10:10:48.709Z,8.90
2018-11-02T10:11:48.747Z,8.00
2018-11-02T10:12:48.576Z,8.30
2018-11-02T10:13:48.502Z,8.00
2018-11-02T10:14:48.485Z,6.70
2018-11-02T10:15:48.434Z,8.80
2018-11-02T10:16:48.499Z,7.00
2018-11-02T10:17:48.410Z,6.20
2018-11-02T10:18:48.415Z,8.60
2018-11-02T10:19:48.323Z,8.20
2018-11-02T10:21:46.410Z,9.00
2018-11-02T10:22:46.361Z,6.80
2018-11-02T10:23:47.375Z,6.40
2018-11-02T10:24:46.297Z,10.00
2018-11-02T10:25:46.329Z,7.30
2018-11-02T10:26:46.274Z,7.20
2018-11-02T10:27:46.238Z,5.90
2018-11-02T10:28:46.159Z,6.20
2018-11-02T10:29:46.175Z,6.00
2018-11-02T10:30:46.112Z,6.60
2018-11-02T10:31:46.146Z,5.70
2018-11-02T10:32:46.050Z,5.50
2018-11-02T10:33:47.096Z,5.60
2018-11-02T10:34:45.998Z,6.60
2018-11-02T10:35:45.983Z,7.30
2018-11-02T10:37:33.426Z,8.10
2018-11-02T10:38:32.273Z,5.80
2018-11-02T10:39:32.392Z,6.80
2018-11-02T10:40:32.237Z,6.70
2018-11-02T10:41:32.289Z,7.60
2018-11-02T10:42:32.194Z,6.40
2018-11-02T10:43:32.200Z,7.30
2018-11-02T10:44:32.230Z,5.90
2018-11-02T10:45:32.144Z,6.10
2018-11-02T10:46:32.060Z,5.50
2018-11-02T10:47:32.060Z,8.50
2018-11-02T10:48:32.021Z,7.40
2018-11-02T10:49:36.649Z,6.60
2018-11-02T10:50:31.934Z,10.00
2018-11-02T10:51:31.963Z,7.50
2018-11-02T10:52:31.869Z,9.40
2018-11-02T10:53:31.857Z,7.90
2018-11-02T10:54:31.926Z,8.00
2018-11-02T10:55:31.792Z,7.30
2018-11-02T10:56:31.794Z,6.40
2018-11-02T10:57:22.939Z,17.00
2018-11-02T10:58:22.898Z,5.70
2018-11-02T10:59:22.883Z,6.10
2018-11-02T11:00:22.868Z,5.50
2018-11-02T11:01:22.885Z,6.30
2018-11-02T11:02:22.795Z,6.50
2018-11-02T11:03:22.761Z,6.50
2018-11-02T11:04:22.826Z,5.50
2018-11-02T11:05:22.722Z,8.20
2018-11-02T11:06:23.773Z,9.00
2018-11-02T11:07:22.628Z,8.00
2018-11-02T11:08:22.759Z,7.90
2018-11-02T11:09:22.613Z,8.80
2018-11-02T11:10:43.553Z,6.40
2018-11-02T11:11:22.715Z,7.00
2018-11-02T11:12:27.774Z,6.60
2018-11-02T11:13:22.806Z,7.00
2018-11-02T11:14:22.434Z,8.20
2018-11-02T11:15:28.527Z,9.20
2018-11-02T11:16:22.370Z,8.80
2018-11-02T11:17:28.015Z,8.90
2018-11-02T11:18:22.334Z,7.20
2018-11-02T11:19:27.906Z,11.30
2018-11-02T11:24:49.609Z,16.40
2018-11-02T11:25:54.413Z,7.00
2018-11-02T11:26:49.602Z,9.00
2018-11-02T11:27:49.556Z,8.80
2018-11-02T11:28:49.497Z,9.40
2018-11-02T11:29:51.509Z,7.70
2018-11-02T11:30:49.478Z,9.20
2018-11-02T11:31:51.570Z,8.10
2018-11-02T11:32:49.363Z,7.30
2018-11-02T11:34:00.342Z,7.70
2018-11-02T11:34:49.400Z,6.10
2018-11-02T11:35:49.389Z,6.20
2018-11-02T11:36:49.400Z,6.50
2018-11-02T11:38:04.859Z,11.20
2018-11-02T11:44:19.730Z,9.00
2018-11-02T11:45:19.793Z,6.80
2018-11-02T11:46:19.656Z,7.40
2018-11-02T11:47:26.243Z,9.30
2018-11-02T11:48:19.606Z,8.30
2018-11-02T11:49:26.158Z,6.90
2018-11-02T11:50:19.567Z,6.90
2018-11-02T11:51:51.212Z,6.60
2018-11-02T11:52:19.489Z,5.90
2018-11-02T11:54:51.925Z,6.10
2018-11-02T11:56:15.614Z,5.50
2018-11-02T11:56:51.864Z,10.50
2018-11-02T11:57:51.877Z,6.70
2018-11-02T11:58:51.778Z,7.00
2018-11-02T12:00:06.631Z,6.80
2018-11-02T12:00:51.800Z,7.90
2018-11-02T12:02:07.714Z,7.70
2018-11-02T12:02:51.660Z,7.00
2018-11-02T12:04:02.647Z,6.30
2018-11-02T12:04:51.609Z,6.20
2018-11-02T12:05:51.642Z,5.00
2018-11-02T12:06:51.545Z,5.70
2018-11-02T12:07:51.700Z,4.00
2018-11-02T12:08:51.492Z,4.30
2018-11-02T12:09:51.541Z,6.50
2018-11-02T12:10:51.437Z,6.40
2018-11-02T12:11:53.507Z,4.20
2018-11-02T12:12:51.356Z,4.40
2018-11-02T12:13:51.383Z,4.50
2018-11-02T12:14:51.331Z,5.00
2018-11-02T12:15:51.445Z,6.50
2018-11-02T12:16:51.262Z,3.50
2018-11-02T12:17:52.320Z,3.80
2018-11-02T12:18:51.178Z,2.20
2018-11-02T12:19:51.150Z,5.20
2018-11-02T12:20:51.215Z,7.20
2018-11-02T12:21:51.178Z,2.20
2018-11-02T12:22:52.164Z,2.90
2018-11-02T12:24:45.180Z,8.60
2018-11-02T12:25:45.283Z,5.20
2018-11-02T12:26:45.113Z,3.30
2018-11-02T12:27:45.097Z,5.10
2018-11-02T12:28:45.128Z,3.60
2018-11-02T12:29:45.018Z,4.50
2018-11-02T12:30:44.989Z,2.90
2018-11-02T12:31:45.001Z,2.90
2018-11-02T12:32:44.934Z,4.30
2018-11-02T12:33:44.930Z,3.60
2018-11-02T12:34:44.873Z,3.30
2018-11-02T12:35:45.868Z,4.20
2018-11-02T12:36:44.808Z,3.00
2018-11-02T12:37:44.757Z,3.30
2018-11-02T12:38:44.740Z,2.80
2018-11-02T12:39:44.709Z,2.70
2018-11-02T12:40:44.676Z,4.10
2018-11-02T12:41:44.657Z,3.70
2018-11-02T12:43:31.344Z,10.10
2018-11-02T12:44:31.188Z,4.40
2018-11-02T12:45:31.149Z,3.20
2018-11-02T12:46:31.096Z,4.50
2018-11-02T12:47:31.159Z,2.50
2018-11-02T12:48:31.135Z,7.80
2018-11-02T12:49:31.459Z,5.30
2018-11-02T12:50:31.138Z,4.50
2018-11-02T12:51:32.017Z,5.50
2018-11-02T12:52:30.949Z,3.90
2018-11-02T12:53:33.029Z,5.90
2018-11-02T12:55:17.926Z,5.90
2018-11-02T12:56:17.834Z,3.90
2018-11-02T12:57:18.946Z,5.10
2018-11-02T12:58:17.779Z,4.20
2018-11-02T12:59:19.775Z,4.60
2018-11-02T13:00:17.701Z,4.40
2018-11-02T13:01:17.754Z,3.90
2018-11-02T13:02:17.662Z,6.80
2018-11-02T13:03:17.657Z,4.50
2018-11-02T13:04:17.584Z,6.20
2018-11-02T13:05:17.680Z,4.70
2018-11-02T13:06:17.536Z,6.30
2018-11-02T13:07:17.500Z,4.90
2018-11-02T13:08:17.496Z,5.40
2018-11-02T13:09:17.473Z,6.50
2018-11-02T13:10:18.439Z,8.40
2018-11-02T13:11:17.398Z,6.80
2018-11-02T13:13:03.768Z,11.70
2018-11-02T13:14:03.816Z,4.40
2018-11-02T13:15:03.698Z,7.30
2018-11-02T13:16:03.836Z,7.40
2018-11-02T13:17:03.655Z,7.00
2018-11-02T13:18:04.703Z,7.60
2018-11-02T13:19:03.597Z,5.30
2018-11-02T13:20:03.669Z,6.20
2018-11-02T13:21:03.580Z,8.10
2018-11-02T13:22:04.638Z,5.80
2018-11-02T13:23:03.482Z,6.40
2018-11-02T13:24:03.437Z,9.70
2018-11-02T13:25:05.533Z,10.00
2018-11-02T13:26:03.584Z,8.30
2018-11-02T13:28:11.254Z,11.30
2018-11-02T13:29:11.099Z,8.80
2018-11-02T13:30:13.200Z,6.20
2018-11-02T13:31:11.066Z,9.30
2018-11-02T13:32:11.012Z,7.90
2018-11-02T13:33:10.985Z,14.30
2018-11-02T13:34:02.594Z,15.10
2018-11-02T13:35:02.563Z,9.10
2018-11-02T13:38:09.044Z,90.30
2018-11-02T13:39:08.914Z,10.60
2018-11-02T13:40:08.910Z,15.80
2018-11-02T13:41:08.865Z,11.60
2018-11-02T13:42:08.940Z,10.20
2018-11-02T13:43:54.519Z,14.20
2018-11-02T13:44:54.402Z,9.20
2018-11-02T13:45:54.384Z,11.10
2018-11-02T13:46:54.329Z,9.00
2018-11-02T13:47:54.342Z,10.30
2018-11-02T13:48:54.284Z,7.40
2018-11-02T13:49:54.254Z,10.30
2018-11-02T13:50:54.220Z,9.60
2018-11-02T13:51:54.241Z,11.80
2018-11-02T13:52:54.166Z,10.20
2018-11-02T13:53:54.143Z,10.60
2018-11-02T13:54:54.160Z,11.00
2018-11-02T13:55:54.123Z,15.70
2018-11-02T13:56:54.763Z,12.30
2018-11-02T13:57:54.160Z,8.80
2018-11-02T13:58:54.148Z,11.00
2018-11-02T13:59:54.032Z,9.80
2018-11-02T14:00:53.944Z,15.00
2018-11-02T14:01:53.919Z,11.20
2018-11-02T14:02:53.889Z,7.60
2018-11-02T14:03:53.855Z,10.40
2018-11-02T14:04:53.825Z,16.50
2018-11-02T14:05:53.802Z,12.30
2018-11-02T14:06:53.805Z,16.60
2018-11-02T14:07:53.747Z,13.80
2018-11-02T14:08:53.815Z,12.10
2018-11-02T14:09:53.687Z,12.20
2018-11-02T14:11:46.009Z,44.50
2018-11-02T14:12:53.693Z,78.50
2018-11-02T14:13:53.659Z,10.20
2018-11-02T14:14:53.625Z,9.70
2018-11-02T14:15:53.601Z,12.20
2018-11-02T14:16:53.588Z,12.10
2018-11-02T14:17:53.686Z,12.70
2018-11-02T14:18:53.520Z,11.60
2018-11-02T14:19:53.580Z,11.60
2018-11-02T14:20:53.478Z,10.30
2018-11-02T14:21:53.529Z,12.80
2018-11-02T14:22:53.441Z,9.80
2018-11-02T14:23:53.400Z,12.00
2018-11-02T14:24:53.457Z,12.50
2018-11-02T14:25:53.416Z,8.50
2018-11-02T14:26:53.293Z,13.10
2018-11-02T14:27:53.310Z,14.80
2018-11-02T14:28:53.245Z,12.10
2018-11-02T14:29:53.237Z,8.90
2018-11-02T14:30:53.187Z,14.90
2018-11-02T14:31:53.239Z,11.20
2018-11-02T14:32:53.124Z,12.60
2018-11-02T14:33:53.170Z,14.80
2018-11-02T14:34:53.077Z,13.10
2018-11-02T14:35:53.074Z,12.70
2018-11-02T14:36:53.012Z,11.60
2018-11-02T14:38:49.380Z,20.70
2018-11-02T14:39:49.435Z,13.40
2018-11-02T14:40:49.356Z,11.70
2018-11-02T14:41:49.316Z,11.60
2018-11-02T14:42:49.241Z,12.70
2018-11-02T14:43:51.293Z,13.40
2018-11-02T14:44:49.199Z,13.80
2018-11-02T14:45:49.184Z,13.10
2018-11-02T14:46:49.134Z,13.60
2018-11-02T14:47:50.190Z,10.90
2018-11-02T14:48:49.073Z,10.90
2018-11-02T14:49:53.991Z,10.20
2018-11-02T14:50:49.136Z,13.20
2018-11-02T14:51:49.097Z,10.50
2018-11-02T14:52:43.659Z,24.80
2018-11-02T14:53:44.760Z,10.60
2018-11-02T14:54:43.564Z,11.70
2018-11-02T14:55:43.612Z,9.70
2018-11-02T14:56:43.503Z,12.40
2018-11-02T14:57:44.533Z,11.00
2018-11-02T14:58:43.454Z,8.60
2018-11-02T14:59:43.624Z,7.00
2018-11-02T15:00:43.381Z,10.30
2018-11-02T15:01:43.442Z,10.60
2018-11-02T15:02:43.333Z,9.20
2018-11-02T15:03:43.300Z,7.90
2018-11-02T15:04:44.384Z,8.00
2018-11-02T15:05:43.241Z,6.60
2018-11-02T15:06:44.267Z,13.60
2018-11-02T15:07:43.199Z,9.10
2018-11-02T15:08:47.967Z,6.60
2018-11-02T15:09:43.144Z,10.20
2018-11-02T15:10:43.160Z,8.50
2018-11-02T15:11:43.082Z,8.10
2018-11-02T15:12:43.075Z,6.70
2018-11-02T15:13:43.025Z,8.40
2018-11-02T15:15:39.898Z,13.70
2018-11-02T15:16:39.928Z,7.50
2018-11-02T15:17:39.798Z,9.40
2018-11-02T15:18:40.863Z,7.80
2018-11-02T15:19:39.743Z,5.60
2018-11-02T15:20:40.780Z,8.20
2018-11-02T15:21:39.713Z,8.90
2018-11-02T15:22:39.759Z,9.30
2018-11-02T15:23:39.640Z,5.20
2018-11-02T15:24:39.674Z,8.70
2018-11-02T15:25:39.592Z,8.10
2018-11-02T15:27:29.528Z,7.20
2018-11-02T15:28:36.231Z,7.20
2018-11-02T15:29:29.453Z,5.90
2018-11-02T15:30:29.487Z,7.00
2018-11-02T15:31:29.394Z,7.50
2018-11-02T15:32:29.395Z,8.50
2018-11-02T15:33:29.354Z,7.40
2018-11-02T15:34:31.462Z,6.50